Time;durP1;ratioP1;P1;durP2;ratioP2;P2;SDS_P1;SDS_P2;PMS_P1;PMS_P2;Temp;Humidity;BMP_temperature;BMP_pressure;BME280_temperature;BME280_humidity;BME280_pressure;Samples;Min_cycle;Max_cycle;Signal;HPM_P1;HPM_P2
2023/03/21 00:01:06;;;;;;;16.58;9.02;;;;;;;;;;4968984;28;19910;-65
2023/03/21 00:03:32;;;;;;;16.92;8.55;;;;;;;;;;4969384;28;20109;-65
2023/03/21 00:05:58;;;;;;;19.90;8.85;;;;;;;;;;4966066;28;20114;-65
2023/03/21 00:08:24;;;;;;;15.48;8.32;;;;;;;;;;4970882;28;20562;-65
2023/03/21 00:10:57;;;;;;;18.58;9.35;;;;;;;;;;4971387;28;20109;-65
2023/03/21 00:13:22;;;;;;;16.88;8.82;;;;;;;;;;4967673;28;20073;-62
2023/03/21 00:15:50;;;;;;;19.13;8.43;;;;;;;;;;4965957;28;20435;-67
2023/03/21 00:18:16;;;;;;;15.15;8.60;;;;;;;;;;4967319;28;20019;-65
2023/03/21 00:20:41;;;;;;;16.77;9.13;;;;;;;;;;4966785;28;20162;-63
2023/03/21 00:23:06;;;;;;;16.40;8.40;;;;;;;;;;4965263;28;20402;-65
2023/03/21 00:25:31;;;;;;;18.15;9.45;;;;;;;;;;4969982;28;20018;-67
2023/03/21 00:27:57;;;;;;;18.92;8.63;;;;;;;;;;4970167;28;20029;-66
2023/03/21 00:30:22;;;;;;;18.60;8.27;;;;;;;;;;4980170;28;20026;-66
2023/03/21 00:32:48;;;;;;;14.43;7.82;;;;;;;;;;4969099;28;20053;-67
2023/03/21 00:35:13;;;;;;;17.43;8.37;;;;;;;;;;4969845;28;20019;-65
2023/03/21 00:37:38;;;;;;;14.25;7.57;;;;;;;;;;4969446;28;20061;-66
2023/03/21 00:40:10;;;;;;;17.85;8.82;;;;;;;;;;4970157;28;20704;-66
2023/03/21 00:42:35;;;;;;;15.65;8.40;;;;;;;;;;4973086;28;20040;-66
2023/03/21 00:45:01;;;;;;;17.25;9.25;;;;;;;;;;4970011;28;20035;-67
2023/03/21 00:47:26;;;;;;;16.88;9.43;;;;;;;;;;4967979;28;20055;-66
2023/03/21 00:49:51;;;;;;;16.67;9.03;;;;;;;;;;4969172;28;20058;-65
2023/03/21 00:52:16;;;;;;;20.00;9.43;;;;;;;;;;4967820;28;20060;-65
2023/03/21 00:54:42;;;;;;;19.47;10.07;;;;;;;;;;4970801;28;20513;-66
2023/03/21 00:57:07;;;;;;;20.25;9.77;;;;;;;;;;4970747;28;20054;-62
2023/03/21 00:59:32;;;;;;;20.17;11.00;;;;;;;;;;4968108;28;20039;-65
2023/03/21 01:01:59;;;;;;;19.17;9.93;;;;;;;;;;4970554;28;20434;-65
2023/03/21 01:04:25;;;;;;;19.80;9.82;;;;;;;;;;4967398;28;20043;-66
2023/03/21 01:06:50;;;;;;;19.45;10.02;;;;;;;;;;4970327;28;20023;-66
2023/03/21 01:09:20;;;;;;;22.90;10.68;;;;;;;;;;4969994;28;20038;-66
2023/03/21 01:11:46;;;;;;;19.80;9.88;;;;;;;;;;4966825;28;20122;-66
2023/03/21 01:14:12;;;;;;;27.52;13.10;;;;;;;;;;4972691;28;20109;-65
2023/03/21 01:16:37;;;;;;;30.55;14.95;;;;;;;;;;4966500;28;20023;-65
2023/03/21 01:19:03;;;;;;;30.20;14.87;;;;;;;;;;4968592;28;20025;-66
2023/03/21 01:21:28;;;;;;;30.52;14.10;;;;;;;;;;4966067;28;20140;-66
2023/03/21 01:23:53;;;;;;;28.08;14.43;;;;;;;;;;4986565;28;20034;-65
2023/03/21 01:26:19;;;;;;;33.33;15.73;;;;;;;;;;4969237;28;20491;-64
2023/03/21 01:28:44;;;;;;;29.75;13.80;;;;;;;;;;4973889;28;20019;-66
2023/03/21 01:31:13;;;;;;;29.10;15.25;;;;;;;;;;4974709;28;20018;-65
2023/03/21 01:33:39;;;;;;;31.60;14.57;;;;;;;;;;4973234;28;20034;-65
2023/03/21 01:36:05;;;;;;;30.75;14.93;;;;;;;;;;4976775;28;20521;-65
2023/03/21 01:38:30;;;;;;;29.80;15.40;;;;;;;;;;4980490;28;20527;-65
2023/03/21 01:40:55;;;;;;;28.40;13.82;;;;;;;;;;4980894;28;20443;-66
2023/03/21 01:43:22;;;;;;;27.33;14.32;;;;;;;;;;4972455;28;20742;-65
2023/03/21 01:46:06;;;;;;;28.95;13.80;;;;;;;;;;4965784;28;20494;-63
2023/03/21 01:48:31;;;;;;;;;;;;;;;;;;4972406;28;20023;-64
2023/03/21 01:50:57;;;;;;;31.45;15.07;;;;;;;;;;4971744;28;19910;-65
2023/03/21 01:53:28;;;;;;;31.08;14.40;;;;;;;;;;4972328;28;20430;-65
2023/03/21 01:55:54;;;;;;;28.77;14.13;;;;;;;;;;4967792;28;20086;-66
2023/03/21 01:58:19;;;;;;;30.95;15.43;;;;;;;;;;4972382;28;20051;-66
2023/03/21 02:00:45;;;;;;;32.35;14.93;;;;;;;;;;4975557;28;20030;-65
2023/03/21 02:03:15;;;;;;;28.77;14.38;;;;;;;;;;4978066;28;20061;-65
2023/03/21 02:05:43;;;;;;;29.00;14.88;;;;;;;;;;4976100;28;20462;-64
2023/03/21 02:08:08;;;;;;;30.52;15.38;;;;;;;;;;4974225;28;20030;-65
2023/03/21 02:10:35;;;;;;;28.85;14.73;;;;;;;;;;4977217;28;20046;-66
2023/03/21 02:13:08;;;;;;;30.27;15.00;;;;;;;;;;4972087;28;20047;-64
2023/03/21 02:15:33;;;;;;;28.77;14.18;;;;;;;;;;4970701;28;20025;-65
2023/03/21 02:18:05;;;;;;;29.33;14.40;;;;;;;;;;4969342;28;20097;-67
2023/03/21 02:20:53;;;;;;;30.98;16.23;;;;;;;;;;4971084;28;20038;-67
2023/03/21 02:23:28;;;;;;;28.50;14.25;;;;;;;;;;4969992;28;20562;-65
2023/03/21 02:26:03;;;;;;;30.15;15.13;;;;;;;;;;4968604;28;20090;-65
2023/03/21 02:28:50;;;;;;;31.77;15.30;;;;;;;;;;4969998;28;20026;-65
2023/03/21 02:31:21;;;;;;;30.02;15.77;;;;;;;;;;4970930;28;20023;-66
2023/03/21 02:33:52;;;;;;;35.78;16.92;;;;;;;;;;4970096;28;20019;-67
2023/03/21 02:36:36;;;;;;;26.52;15.05;;;;;;;;;;4969437;28;20023;-66
2023/03/21 02:39:10;;;;;;;29.55;15.48;;;;;;;;;;4965745;28;20489;-64
2023/03/21 02:41:44;;;;;;;31.20;15.57;;;;;;;;;;4969052;28;20462;-67
2023/03/21 02:44:15;;;;;;;29.48;15.52;;;;;;;;;;4970150;28;20038;-66
2023/03/21 02:46:56;;;;;;;30.65;15.15;;;;;;;;;;4969963;28;20105;-67
2023/03/21 02:49:54;;;;;;;30.70;15.77;;;;;;;;;;4970857;28;20405;-67
2023/03/21 02:52:21;;;;;;;33.03;15.35;;;;;;;;;;4945875;28;20030;-66
2023/03/21 02:54:48;;;;;;;31.13;15.82;;;;;;;;;;4970172;28;20022;-67
2023/03/21 02:57:15;;;;;;;29.65;15.48;;;;;;;;;;4970611;28;20106;-65
2023/03/21 02:59:40;;;;;;;28.88;14.98;;;;;;;;;;4968232;28;20471;-67
2023/03/21 03:02:06;;;;;;;31.33;15.88;;;;;;;;;;4967907;28;20117;-67
2023/03/21 03:04:31;;;;;;;29.60;15.38;;;;;;;;;;4968303;28;20022;-68
2023/03/21 03:07:00;;;;;;;27.70;15.05;;;;;;;;;;4971911;28;20026;-68
2023/03/21 03:09:43;;;;;;;31.95;15.73;;;;;;;;;;4968096;28;20027;-65
2023/03/21 03:12:30;;;;;;;28.20;14.65;;;;;;;;;;4963930;28;20023;-67
2023/03/21 03:15:02;;;;;;;31.70;14.95;;;;;;;;;;4968323;28;20034;-67
2023/03/21 03:17:42;;;;;;;24.90;14.10;;;;;;;;;;4969386;28;20033;-68
2023/03/21 03:20:27;;;;;;;25.55;14.55;;;;;;;;;;4969785;28;20027;-66
2023/03/21 03:22:52;;;;;;;;;;;;;;;;;;4969760;28;20022;-67
2023/03/21 03:25:21;;;;;;;27.10;13.63;;;;;;;;;;4969386;28;19913;-67
2023/03/21 03:27:47;;;;;;;27.60;14.85;;;;;;;;;;4970714;28;20022;-68
2023/03/21 03:30:12;;;;;;;26.30;14.90;;;;;;;;;;4967188;28;20026;-67
2023/03/21 03:32:49;;;;;;;30.55;15.77;;;;;;;;;;4968979;28;21428;-64
2023/03/21 03:35:16;;;;;;;30.73;15.35;;;;;;;;;;4965865;28;20440;-68
2023/03/21 03:37:43;;;;;;;29.40;15.55;;;;;;;;;;4970461;28;20170;-65
2023/03/21 03:40:09;;;;;;;28.40;15.85;;;;;;;;;;4967262;28;20023;-67
2023/03/21 03:42:35;;;;;;;28.58;15.85;;;;;;;;;;4969389;28;20134;-65
2023/03/21 03:45:02;;;;;;;29.98;15.05;;;;;;;;;;4965373;28;20088;-65
2023/03/21 03:47:28;;;;;;;29.30;15.80;;;;;;;;;;4965639;28;20074;-67
2023/03/21 03:49:56;;;;;;;27.15;15.45;;;;;;;;;;4969718;28;20038;-65
2023/03/21 03:52:27;;;;;;;29.85;16.13;;;;;;;;;;4968342;28;20037;-66
2023/03/21 03:54:53;;;;;;;28.08;15.05;;;;;;;;;;4965325;28;20059;-66
2023/03/21 03:57:18;;;;;;;30.90;16.13;;;;;;;;;;4970342;28;20078;-67
2023/03/21 03:59:45;;;;;;;26.80;15.15;;;;;;;;;;4970755;28;20019;-66
2023/03/21 04:02:10;;;;;;;29.58;16.63;;;;;;;;;;4971264;28;20030;-65
2023/03/21 04:04:35;;;;;;;29.02;14.93;;;;;;;;;;4971354;28;20034;-68
2023/03/21 04:07:02;;;;;;;31.45;15.88;;;;;;;;;;4974140;28;20074;-68
2023/03/21 04:09:28;;;;;;;28.60;15.65;;;;;;;;;;4972823;28;20030;-67
2023/03/21 04:11:53;;;;;;;28.17;15.25;;;;;;;;;;4972678;28;20042;-66
2023/03/21 04:14:18;;;;;;;29.05;15.68;;;;;;;;;;4976011;28;20195;-63
2023/03/21 04:16:43;;;;;;;28.08;15.35;;;;;;;;;;4973187;28;20022;-67
2023/03/21 04:19:09;;;;;;;31.85;16.27;;;;;;;;;;4978363;28;20565;-65
2023/03/21 04:21:34;;;;;;;31.40;15.93;;;;;;;;;;4979602;28;20113;-66
2023/03/21 04:24:00;;;;;;;28.45;15.27;;;;;;;;;;4980244;28;20565;-66
2023/03/21 04:26:31;;;;;;;29.25;15.65;;;;;;;;;;4978828;28;20023;-67
2023/03/21 04:28:59;;;;;;;28.55;15.77;;;;;;;;;;4975305;28;20019;-66
2023/03/21 04:31:26;;;;;;;29.20;16.30;;;;;;;;;;4969277;28;20433;-67
2023/03/21 04:33:51;;;;;;;29.63;15.77;;;;;;;;;;4971022;28;20034;-67
2023/03/21 04:36:26;;;;;;;30.00;16.08;;;;;;;;;;4972104;28;20390;-66
2023/03/21 04:38:51;;;;;;;30.85;16.65;;;;;;;;;;4971770;28;20029;-66
2023/03/21 04:41:16;;;;;;;29.95;15.88;;;;;;;;;;4974421;28;20022;-67
2023/03/21 04:43:41;;;;;;;28.80;15.77;;;;;;;;;;4969665;28;20058;-67
2023/03/21 04:46:07;;;;;;;28.15;15.98;;;;;;;;;;4971763;28;20023;-66
2023/03/21 04:48:32;;;;;;;31.90;16.47;;;;;;;;;;4973445;28;20055;-67
2023/03/21 04:50:57;;;;;;;26.73;15.88;;;;;;;;;;4971407;28;20493;-66
2023/03/21 04:53:22;;;;;;;32.17;15.75;;;;;;;;;;4972893;28;20073;-64
2023/03/21 04:55:47;;;;;;;30.63;16.33;;;;;;;;;;4972734;28;20023;-67
2023/03/21 04:58:12;;;;;;;32.30;17.27;;;;;;;;;;4971354;28;20023;-67
2023/03/21 05:00:39;;;;;;;30.40;16.00;;;;;;;;;;4970549;28;20030;-65
2023/03/21 05:03:07;;;;;;;30.35;16.75;;;;;;;;;;4972749;28;20379;-66
2023/03/21 05:05:32;;;;;;;31.50;16.95;;;;;;;;;;4971220;28;20039;-67
2023/03/21 05:07:59;;;;;;;31.60;17.27;;;;;;;;;;4972841;28;20058;-66
2023/03/21 05:10:24;;;;;;;31.45;17.00;;;;;;;;;;4971521;28;20027;-66
2023/03/21 05:12:49;;;;;;;33.03;17.15;;;;;;;;;;4970015;28;20034;-67
2023/03/21 05:15:14;;;;;;;31.00;15.80;;;;;;;;;;4975872;28;20022;-65
2023/03/21 05:17:41;;;;;;;29.05;15.93;;;;;;;;;;4969832;28;20018;-65
2023/03/21 05:20:08;;;;;;;;;;;;;;;;;;4969398;28;20019;-65
2023/03/21 05:22:39;;;;;;;29.70;14.32;;;;;;;;;;4969070;28;19910;-65
2023/03/21 05:25:07;;;;;;;26.58;14.00;;;;;;;;;;4968559;28;20027;-64
2023/03/21 05:27:35;;;;;;;29.60;14.25;;;;;;;;;;4970592;28;20414;-65
2023/03/21 05:30:05;;;;;;;25.63;14.80;;;;;;;;;;4973032;28;20046;-63
2023/03/21 05:32:31;;;;;;;25.30;13.07;;;;;;;;;;4970584;28;20029;-64
2023/03/21 05:34:57;;;;;;;21.23;11.73;;;;;;;;;;4970756;28;20434;-64
2023/03/21 05:37:22;;;;;;;18.13;10.38;;;;;;;;;;4976852;28;20021;-66
2023/03/21 05:39:48;;;;;;;21.05;9.60;;;;;;;;;;4968527;28;20057;-65
2023/03/21 05:42:14;;;;;;;17.70;8.90;;;;;;;;;;4971911;28;20033;-65
2023/03/21 05:44:40;;;;;;;17.23;8.13;;;;;;;;;;4968896;28;20027;-64
2023/03/21 05:47:06;;;;;;;15.27;7.78;;;;;;;;;;4966786;28;20062;-65
2023/03/21 05:49:31;;;;;;;14.05;7.05;;;;;;;;;;4966636;28;20663;-65
2023/03/21 05:51:57;;;;;;;14.65;6.88;;;;;;;;;;4971206;28;20033;-65
2023/03/21 05:54:25;;;;;;;16.13;6.67;;;;;;;;;;4972156;28;20715;-66
2023/03/21 05:56:51;;;;;;;13.57;6.05;;;;;;;;;;4973963;28;20469;-65
2023/03/21 05:59:17;;;;;;;10.82;5.70;;;;;;;;;;4975030;28;20158;-63
2023/03/21 06:01:42;;;;;;;12.10;5.45;;;;;;;;;;4971005;28;20042;-65
2023/03/21 06:04:07;;;;;;;9.80;4.85;;;;;;;;;;4970084;28;20042;-65
2023/03/21 06:06:33;;;;;;;11.63;5.32;;;;;;;;;;4972772;28;20026;-63
2023/03/21 06:08:59;;;;;;;11.48;5.55;;;;;;;;;;4969992;28;20117;-64
2023/03/21 06:11:29;;;;;;;12.93;5.47;;;;;;;;;;4964620;28;20034;-65
2023/03/21 06:13:54;;;;;;;12.32;5.15;;;;;;;;;;4970855;28;20052;-64
2023/03/21 06:16:19;;;;;;;14.55;5.90;;;;;;;;;;4964863;28;20095;-63
2023/03/21 06:18:45;;;;;;;13.95;5.65;;;;;;;;;;4961759;28;20495;-64
2023/03/21 06:21:10;;;;;;;12.98;6.03;;;;;;;;;;4977936;28;20046;-65
2023/03/21 06:23:36;;;;;;;14.27;5.68;;;;;;;;;;4968433;28;20039;-63
2023/03/21 06:26:01;;;;;;;13.38;5.53;;;;;;;;;;4971341;28;20484;-63
2023/03/21 06:28:26;;;;;;;12.95;5.47;;;;;;;;;;4973748;28;20029;-65
2023/03/21 06:30:51;;;;;;;12.50;5.25;;;;;;;;;;4988108;28;20029;-66
2023/03/21 06:33:17;;;;;;;11.95;5.47;;;;;;;;;;4973069;28;20037;-67
2023/03/21 06:35:42;;;;;;;15.68;5.28;;;;;;;;;;4973172;28;20027;-65
2023/03/21 06:38:07;;;;;;;13.07;5.10;;;;;;;;;;4973277;28;20050;-65
2023/03/21 06:40:32;;;;;;;12.35;5.72;;;;;;;;;;4974034;28;20030;-66
2023/03/21 06:42:57;;;;;;;10.90;5.57;;;;;;;;;;4974024;28;20029;-64
2023/03/21 06:45:24;;;;;;;12.68;5.68;;;;;;;;;;4973494;28;20102;-66
2023/03/21 06:47:49;;;;;;;10.45;5.80;;;;;;;;;;4972847;28;20026;-68
2023/03/21 06:50:14;;;;;;;11.02;5.25;;;;;;;;;;4973424;28;20383;-66
2023/03/21 06:52:39;;;;;;;12.80;5.53;;;;;;;;;;4972391;28;20037;-64
2023/03/21 06:55:05;;;;;;;13.80;5.80;;;;;;;;;;4971976;28;20045;-65
2023/03/21 06:57:30;;;;;;;13.23;5.55;;;;;;;;;;4972982;28;20153;-65
2023/03/21 06:59:55;;;;;;;12.23;5.30;;;;;;;;;;4972785;28;20081;-65
2023/03/21 07:02:20;;;;;;;10.97;5.50;;;;;;;;;;4978392;28;20045;-65
2023/03/21 07:04:46;;;;;;;11.53;5.00;;;;;;;;;;4982470;28;20455;-64
2023/03/21 07:07:11;;;;;;;12.40;5.77;;;;;;;;;;4985199;28;20026;-67
2023/03/21 07:09:36;;;;;;;10.55;5.25;;;;;;;;;;4980654;28;20826;-65
2023/03/21 07:12:01;;;;;;;10.43;5.13;;;;;;;;;;4970162;28;20521;-66
2023/03/21 07:14:26;;;;;;;11.07;5.03;;;;;;;;;;4968283;28;20034;-66
2023/03/21 07:16:52;;;;;;;14.40;5.80;;;;;;;;;;4968144;28;20026;-66
2023/03/21 07:19:17;;;;;;;10.15;5.07;;;;;;;;;;4971064;28;20046;-66
2023/03/21 07:21:42;;;;;;;12.02;4.72;;;;;;;;;;4971007;28;20022;-65
2023/03/21 07:24:07;;;;;;;10.88;5.00;;;;;;;;;;4968023;28;20073;-65
2023/03/21 07:26:32;;;;;;;12.27;5.13;;;;;;;;;;4971370;28;20031;-63
2023/03/21 07:28:57;;;;;;;10.43;5.05;;;;;;;;;;4968229;28;20034;-65
2023/03/21 07:31:25;;;;;;;9.55;4.70;;;;;;;;;;4967835;28;20023;-64
2023/03/21 07:33:50;;;;;;;11.18;5.03;;;;;;;;;;4961827;28;20050;-65
2023/03/21 07:36:16;;;;;;;10.73;4.60;;;;;;;;;;4960859;28;20372;-65
2023/03/21 07:38:42;;;;;;;12.97;5.23;;;;;;;;;;4967089;28;20078;-65
2023/03/21 07:41:07;;;;;;;10.13;4.55;;;;;;;;;;4966997;28;20158;-67
2023/03/21 07:43:32;;;;;;;9.67;4.70;;;;;;;;;;4965369;28;20114;-65
2023/03/21 07:45:57;;;;;;;10.27;4.60;;;;;;;;;;4962898;28;20101;-65
2023/03/21 07:48:23;;;;;;;13.25;5.30;;;;;;;;;;4966223;28;20030;-64
2023/03/21 07:50:48;;;;;;;9.85;5.35;;;;;;;;;;4966618;28;20034;-65
2023/03/21 07:53:13;;;;;;;12.70;5.47;;;;;;;;;;4967495;28;20554;-65
2023/03/21 07:55:38;;;;;;;10.27;4.77;;;;;;;;;;4967211;28;20038;-65
2023/03/21 07:58:03;;;;;;;9.70;4.95;;;;;;;;;;4965972;28;20031;-65
2023/03/21 08:00:29;;;;;;;11.97;5.33;;;;;;;;;;4963438;28;20181;-63
2023/03/21 08:02:55;;;;;;;11.30;5.43;;;;;;;;;;4964888;28;20163;-65
2023/03/21 08:05:21;;;;;;;12.52;5.43;;;;;;;;;;4967666;28;20038;-64
2023/03/21 08:07:47;;;;;;;11.75;5.45;;;;;;;;;;4968750;28;20019;-66
2023/03/21 08:10:12;;;;;;;11.30;5.00;;;;;;;;;;4966018;28;20030;-65
2023/03/21 08:12:37;;;;;;;13.23;5.73;;;;;;;;;;4970259;28;20015;-65
2023/03/21 08:15:03;;;;;;;13.05;5.43;;;;;;;;;;4970542;28;20375;-66
2023/03/21 08:17:28;;;;;;;10.15;5.32;;;;;;;;;;4970494;28;20030;-66
2023/03/21 08:19:53;;;;;;;9.50;5.13;;;;;;;;;;4969677;28;20106;-62
2023/03/21 08:22:18;;;;;;;11.18;5.10;;;;;;;;;;4970782;28;20014;-67
2023/03/21 08:24:43;;;;;;;11.30;5.50;;;;;;;;;;4969067;28;20077;-67
2023/03/21 08:27:09;;;;;;;10.13;5.77;;;;;;;;;;4971337;28;20110;-67
2023/03/21 08:29:39;;;;;;;9.90;5.60;;;;;;;;;;4969386;28;20441;-67
2023/03/21 08:32:04;;;;;;;10.98;5.30;;;;;;;;;;4970977;28;20474;-65
2023/03/21 08:34:29;;;;;;;12.45;5.13;;;;;;;;;;4970545;28;20030;-65
2023/03/21 08:36:54;;;;;;;9.38;5.00;;;;;;;;;;4970259;28;20534;-65
2023/03/21 08:39:20;;;;;;;11.70;5.37;;;;;;;;;;4970117;28;20034;-65
2023/03/21 08:41:45;;;;;;;12.15;5.13;;;;;;;;;;4962562;28;20141;-66
2023/03/21 08:44:11;;;;;;;10.93;4.90;;;;;;;;;;4969384;28;20023;-68
2023/03/21 08:46:36;;;;;;;8.75;4.82;;;;;;;;;;4972054;28;20022;-64
2023/03/21 08:49:01;;;;;;;11.33;5.00;;;;;;;;;;4974370;28;20105;-65
2023/03/21 08:51:26;;;;;;;9.37;4.80;;;;;;;;;;4973456;28;20031;-65
2023/03/21 08:53:51;;;;;;;10.55;5.10;;;;;;;;;;4973949;28;20467;-66
2023/03/21 08:56:17;;;;;;;10.67;4.80;;;;;;;;;;4972776;28;20132;-66
2023/03/21 08:58:43;;;;;;;9.97;4.83;;;;;;;;;;4973597;28;20027;-65
2023/03/21 09:01:10;;;;;;;11.35;4.45;;;;;;;;;;4971775;28;20125;-67
2023/03/21 09:03:35;;;;;;;11.80;5.18;;;;;;;;;;4972945;28;20030;-67
2023/03/21 09:06:02;;;;;;;9.07;4.40;;;;;;;;;;4973210;28;20474;-66
2023/03/21 09:08:27;;;;;;;10.18;4.70;;;;;;;;;;4973024;28;20037;-65
2023/03/21 09:10:53;;;;;;;9.40;4.75;;;;;;;;;;4973596;28;20750;-65
2023/03/21 09:13:18;;;;;;;10.02;4.47;;;;;;;;;;4974850;28;20026;-67
2023/03/21 09:15:44;;;;;;;11.05;4.60;;;;;;;;;;4972846;28;20030;-66
2023/03/21 09:18:14;;;;;;;9.57;4.80;;;;;;;;;;4972156;28;20094;-66
2023/03/21 09:20:41;;;;;;;8.65;4.50;;;;;;;;;;4973953;28;20027;-66
2023/03/21 09:23:07;;;;;;;11.38;4.47;;;;;;;;;;4974218;28;20109;-64
2023/03/21 09:25:32;;;;;;;11.00;4.70;;;;;;;;;;4972578;28;20083;-66
2023/03/21 09:27:59;;;;;;;9.18;4.10;;;;;;;;;;4972833;28;20050;-65
2023/03/21 09:30:24;;;;;;;9.07;4.55;;;;;;;;;;4972815;28;20011;-68
2023/03/21 09:32:50;;;;;;;8.70;4.28;;;;;;;;;;4974155;28;20027;-65
2023/03/21 09:35:17;;;;;;;7.35;4.20;;;;;;;;;;4973028;28;20027;-66
2023/03/21 09:37:42;;;;;;;9.02;4.60;;;;;;;;;;4973564;28;20027;-65
2023/03/21 09:40:18;;;;;;;7.40;4.13;;;;;;;;;;4974124;28;20030;-67
2023/03/21 09:42:53;;;;;;;9.75;4.05;;;;;;;;;;4973549;28;20027;-64
2023/03/21 09:45:24;;;;;;;8.93;3.60;;;;;;;;;;4973876;28;20026;-66
2023/03/21 09:47:53;;;;;;;7.07;3.72;;;;;;;;;;4980409;28;20082;-65
2023/03/21 09:50:20;;;;;;;8.77;3.70;;;;;;;;;;4980598;28;20029;-66
2023/03/21 09:52:52;;;;;;;11.13;4.15;;;;;;;;;;4981938;28;20022;-67
2023/03/21 09:55:20;;;;;;;9.40;4.32;;;;;;;;;;4972406;28;20035;-67
2023/03/21 09:57:47;;;;;;;10.48;3.95;;;;;;;;;;4972589;28;20014;-66
2023/03/21 10:00:21;;;;;;;8.32;3.70;;;;;;;;;;4972489;28;20057;-66
2023/03/21 10:02:48;;;;;;;9.13;3.97;;;;;;;;;;4964539;28;20467;-67
2023/03/21 10:05:14;;;;;;;9.75;4.20;;;;;;;;;;4972089;28;20403;-65
2023/03/21 10:07:41;;;;;;;7.63;3.95;;;;;;;;;;4973224;28;20057;-66
2023/03/21 10:10:09;;;;;;;8.40;3.70;;;;;;;;;;4972772;28;20081;-67
2023/03/21 10:12:34;;;;;;;8.30;3.75;;;;;;;;;;4970525;28;20030;-66
2023/03/21 10:15:00;;;;;;;9.27;3.90;;;;;;;;;;4972133;28;20084;-66
2023/03/21 10:17:32;;;;;;;9.35;3.70;;;;;;;;;;4973197;28;20450;-65
2023/03/21 10:20:10;;;;;;;7.32;3.72;;;;;;;;;;4970679;28;20065;-65
2023/03/21 10:22:35;;;;;;;7.45;3.60;;;;;;;;;;4970877;28;20039;-66
2023/03/21 10:25:01;;;;;;;8.68;4.07;;;;;;;;;;4971523;28;20483;-68
2023/03/21 10:27:26;;;;;;;9.23;3.63;;;;;;;;;;4973216;28;20053;-64
2023/03/21 10:29:52;;;;;;;6.90;3.03;;;;;;;;;;4971470;28;20115;-65
2023/03/21 10:32:17;;;;;;;6.35;3.15;;;;;;;;;;4972616;28;20077;-65
2023/03/21 10:34:45;;;;;;;11.05;3.47;;;;;;;;;;4971471;28;20018;-66
2023/03/21 10:37:11;;;;;;;6.72;3.25;;;;;;;;;;4970243;28;20023;-65
2023/03/21 10:39:38;;;;;;;8.77;3.30;;;;;;;;;;4971482;28;20033;-65
2023/03/21 10:42:03;;;;;;;8.32;2.70;;;;;;;;;;4973320;28;20027;-66
2023/03/21 10:44:29;;;;;;;6.53;2.60;;;;;;;;;;4971306;28;20042;-66
2023/03/21 10:46:55;;;;;;;;;;;;;;;;;;4973733;28;20465;-67
2023/03/21 10:49:20;;;;;;;6.25;2.50;;;;;;;;;;4970963;28;19916;-66
2023/03/21 10:51:46;;;;;;;5.80;2.50;;;;;;;;;;4970876;28;20026;-67
2023/03/21 10:54:13;;;;;;;5.90;2.88;;;;;;;;;;4971882;28;20089;-67
2023/03/21 10:56:42;;;;;;;7.43;2.75;;;;;;;;;;4970696;28;20320;-66
2023/03/21 10:59:07;;;;;;;6.45;2.70;;;;;;;;;;4971580;28;20387;-68
2023/03/21 11:01:35;;;;;;;6.47;2.92;;;;;;;;;;4971339;28;20023;-67
2023/03/21 11:04:05;;;;;;;7.22;2.92;;;;;;;;;;4972431;28;20085;-66
2023/03/21 11:06:31;;;;;;;8.02;2.67;;;;;;;;;;4967171;28;20027;-67
2023/03/21 11:09:03;;;;;;;7.18;2.70;;;;;;;;;;4971778;28;20027;-66
2023/03/21 11:11:33;;;;;;;6.03;2.55;;;;;;;;;;4971036;28;20030;-66
2023/03/21 11:14:00;;;;;;;5.15;2.42;;;;;;;;;;4972829;28;20065;-65
2023/03/21 11:16:30;;;;;;;5.03;2.58;;;;;;;;;;4970092;28;20035;-65
2023/03/21 11:18:58;;;;;;;6.10;2.67;;;;;;;;;;4973313;28;20014;-65
2023/03/21 11:21:26;;;;;;;5.88;2.80;;;;;;;;;;4969797;28;20038;-65
2023/03/21 11:23:53;;;;;;;6.40;2.45;;;;;;;;;;4966109;28;20023;-66
2023/03/21 11:26:42;;;;;;;6.00;2.38;;;;;;;;;;4973173;28;20022;-66
2023/03/21 11:29:18;;;;;;;6.32;2.70;;;;;;;;;;4972199;28;20025;-66
2023/03/21 11:31:44;;;;;;;5.80;2.65;;;;;;;;;;4974286;28;20019;-66
2023/03/21 11:34:22;;;;;;;6.50;2.72;;;;;;;;;;4976698;28;20023;-65
2023/03/21 11:36:49;;;;;;;4.90;2.40;;;;;;;;;;4973469;28;20496;-67
2023/03/21 11:39:28;;;;;;;6.13;2.17;;;;;;;;;;4970180;28;20487;-66
2023/03/21 11:41:53;;;;;;;5.22;1.80;;;;;;;;;;4971278;28;20034;-65
2023/03/21 11:44:24;;;;;;;5.67;2.50;;;;;;;;;;4971072;28;20023;-64
2023/03/21 11:46:49;;;;;;;4.70;2.30;;;;;;;;;;4967551;28;20026;-65
2023/03/21 11:49:14;;;;;;;5.50;2.38;;;;;;;;;;4973766;28;20027;-67
2023/03/21 11:51:42;;;;;;;6.57;2.67;;;;;;;;;;4969852;28;20517;-68
2023/03/21 11:54:13;;;;;;;4.53;1.70;;;;;;;;;;4971968;28;20022;-66
2023/03/21 11:56:50;;;;;;;5.78;2.42;;;;;;;;;;4969540;28;20090;-68
2023/03/21 11:59:34;;;;;;;5.07;2.13;;;;;;;;;;4971523;28;20023;-66
2023/03/21 12:02:11;;;;;;;7.20;2.22;;;;;;;;;;4967594;28;20787;-66
2023/03/21 12:04:40;;;;;;;6.65;2.05;;;;;;;;;;4967902;28;20066;-66
2023/03/21 12:07:25;;;;;;;4.75;2.08;;;;;;;;;;4970513;28;20394;-68
2023/03/21 12:10:13;;;;;;;5.45;2.30;;;;;;;;;;4963313;28;20034;-65
2023/03/21 12:12:53;;;;;;;5.85;2.25;;;;;;;;;;4969800;28;20022;-67
2023/03/21 12:15:23;;;;;;;5.07;2.08;;;;;;;;;;4969317;28;20034;-67
2023/03/21 12:17:57;;;;;;;5.57;2.67;;;;;;;;;;4970447;28;20058;-65
2023/03/21 12:20:29;;;;;;;4.97;1.95;;;;;;;;;;4973868;28;20026;-64
2023/03/21 12:23:03;;;;;;;4.28;2.00;;;;;;;;;;4967400;28;20034;-65
2023/03/21 12:25:34;;;;;;;5.03;2.00;;;;;;;;;;4972715;28;20082;-64
2023/03/21 12:28:18;;;;;;;5.82;2.40;;;;;;;;;;4975483;28;20023;-66
2023/03/21 12:31:02;;;;;;;5.70;2.20;;;;;;;;;;4978561;28;20130;-66
2023/03/21 12:33:45;;;;;;;4.70;2.50;;;;;;;;;;4976488;28;20022;-68
2023/03/21 12:36:21;;;;;;;4.50;2.33;;;;;;;;;;4984340;28;20030;-65
2023/03/21 12:38:47;;;;;;;6.25;2.20;;;;;;;;;;4980227;28;20049;-67
2023/03/21 12:41:19;;;;;;;5.22;2.10;;;;;;;;;;4974509;28;20477;-65
2023/03/21 12:43:44;;;;;;;;;;;;;;;;;;4974666;28;20026;-67
2023/03/21 12:46:16;;;;;;;4.93;2.03;;;;;;;;;;4972551;28;19964;-67
2023/03/21 12:48:41;;;;;;;;;;;;;;;;;;4974168;28;20030;-66
2023/03/21 12:51:10;;;;;;;4.82;1.77;;;;;;;;;;4974487;28;19917;-68
2023/03/21 12:53:58;;;;;;;4.85;1.88;;;;;;;;;;4973052;28;20031;-67
2023/03/21 12:56:29;;;;;;;5.15;2.17;;;;;;;;;;4971968;28;20030;-65
2023/03/21 12:59:01;;;;;;;5.25;2.15;;;;;;;;;;4972948;28;20027;-66
2023/03/21 13:01:27;;;;;;;5.60;1.88;;;;;;;;;;4973630;28;20030;-67
2023/03/21 13:04:05;;;;;;;4.72;2.00;;;;;;;;;;4973370;28;20031;-66
2023/03/21 13:06:30;;;;;;;4.82;2.10;;;;;;;;;;4972498;28;20050;-67
2023/03/21 13:08:59;;;;;;;7.80;2.10;;;;;;;;;;4972704;28;20050;-67
2023/03/21 13:11:26;;;;;;;5.88;2.22;;;;;;;;;;4973547;28;20038;-66
2023/03/21 13:13:51;;;;;;;4.80;2.03;;;;;;;;;;4973553;28;20029;-64
2023/03/21 13:16:29;;;;;;;5.78;1.80;;;;;;;;;;4973372;28;20110;-65
2023/03/21 13:19:02;;;;;;;6.10;2.20;;;;;;;;;;4973169;28;20726;-65
2023/03/21 13:21:40;;;;;;;5.00;1.77;;;;;;;;;;4973343;28;20030;-66
2023/03/21 13:24:26;;;;;;;3.65;1.50;;;;;;;;;;4971776;28;20122;-66
2023/03/21 13:27:00;;;;;;;7.97;1.85;;;;;;;;;;4973419;28;20023;-67
2023/03/21 13:29:26;;;;;;;4.93;1.70;;;;;;;;;;4973155;28;20027;-65
2023/03/21 13:31:53;;;;;;;4.53;1.67;;;;;;;;;;4972465;28;20027;-66
2023/03/21 13:34:20;;;;;;;4.32;1.80;;;;;;;;;;4972727;28;20121;-66
2023/03/21 13:36:47;;;;;;;3.97;1.73;;;;;;;;;;4972737;28;20034;-66
2023/03/21 13:39:16;;;;;;;6.72;1.85;;;;;;;;;;4972873;28;20037;-67
2023/03/21 13:41:42;;;;;;;4.95;1.85;;;;;;;;;;4972314;28;20026;-65
2023/03/21 13:44:15;;;;;;;4.88;1.90;;;;;;;;;;4973431;28;20107;-67
2023/03/21 13:46:44;;;;;;;3.90;1.60;;;;;;;;;;4971790;28;20443;-68
2023/03/21 13:49:09;;;;;;;4.50;1.80;;;;;;;;;;4973052;28;20038;-67
2023/03/21 13:51:42;;;;;;;5.57;1.98;;;;;;;;;;4972356;28;20064;-66
2023/03/21 13:54:07;;;;;;;4.38;1.65;;;;;;;;;;4973258;28;20031;-65
2023/03/21 13:56:45;;;;;;;5.13;1.60;;;;;;;;;;4971651;28;20483;-66
2023/03/21 13:59:10;;;;;;;5.68;1.90;;;;;;;;;;4973410;28;20500;-68
2023/03/21 14:01:40;;;;;;;5.00;1.70;;;;;;;;;;4972631;28;20479;-66
2023/03/21 14:04:13;;;;;;;3.53;1.65;;;;;;;;;;4973163;28;20057;-64
2023/03/21 14:06:50;;;;;;;4.97;1.60;;;;;;;;;;4971848;28;20121;-67
2023/03/21 14:09:24;;;;;;;6.32;1.92;;;;;;;;;;4968290;28;20027;-67
2023/03/21 14:11:51;;;;;;;6.05;2.20;;;;;;;;;;4972300;28;20023;-68
2023/03/21 14:14:16;;;;;;;;;;;;;;;;;;4965284;28;20042;-66
2023/03/21 14:16:42;;;;;;;4.30;1.70;;;;;;;;;;4969928;28;19957;-66
2023/03/21 14:19:10;;;;;;;4.97;2.08;;;;;;;;;;4969884;28;20026;-66
2023/03/21 14:21:36;;;;;;;5.32;1.90;;;;;;;;;;4969224;28;20041;-67
2023/03/21 14:24:05;;;;;;;5.60;1.90;;;;;;;;;;4977169;28;20039;-66
2023/03/21 14:26:32;;;;;;;8.27;2.47;;;;;;;;;;4971702;28;20026;-65
2023/03/21 14:28:57;;;;;;;6.32;2.17;;;;;;;;;;4972979;28;20022;-66
2023/03/21 14:31:22;;;;;;;5.13;2.22;;;;;;;;;;4975486;28;20021;-66
2023/03/21 14:33:52;;;;;;;6.07;2.00;;;;;;;;;;4970346;28;20443;-67
2023/03/21 14:36:19;;;;;;;5.07;2.03;;;;;;;;;;4969109;28;20015;-65
2023/03/21 14:38:53;;;;;;;4.85;2.17;;;;;;;;;;4971807;28;20466;-65